Time;durP1;ratioP1;P1;durP2;ratioP2;P2;SDS_P1;SDS_P2;PMS_P1;PMS_P2;Temp;Humidity;BMP_temperature;BMP_pressure;BME280_temperature;BME280_humidity;BME280_pressure;Samples;Min_cycle;Max_cycle;Signal;HPM_P1;HPM_P2
2022/02/21 00:02:05;;;;;;;11.13;2.87;;;;;;;-145.14;100.00;70583.66;5000344;28;20193;-71
2022/02/21 00:04:30;;;;;;;15.63;3.70;;;;;;;-145.14;100.00;70583.66;4992336;28;20224;-72
2022/02/21 00:06:56;;;;;;;11.87;2.33;;;;;;;-145.14;100.00;70583.66;4996358;28;20464;-71
2022/02/21 00:09:21;;;;;;;17.50;3.33;;;;;;;-145.14;100.00;70583.66;4995361;28;20185;-74
2022/02/21 00:11:47;;;;;;;11.37;2.73;;;;;;;-145.14;100.00;70583.66;4997497;28;20570;-71
2022/02/21 00:14:12;;;;;;;11.93;2.73;;;;;;;-145.14;100.00;70583.66;5000690;28;20681;-70
2022/02/21 00:16:38;;;;;;;15.17;2.70;;;;;;;-145.14;100.00;70583.66;4996807;28;20192;-71
2022/02/21 00:19:03;;;;;;;14.57;3.17;;;;;;;-145.14;100.00;70583.66;4998623;28;20197;-71
2022/02/21 00:21:29;;;;;;;12.57;2.73;;;;;;;-145.14;100.00;70583.66;4995093;28;20189;-72
2022/02/21 00:23:55;;;;;;;14.70;2.80;;;;;;;-145.14;100.00;70583.66;4997436;28;20242;-72
2022/02/21 00:26:21;;;;;;;13.93;2.73;;;;;;;-145.14;100.00;70583.66;5001124;28;20477;-72
2022/02/21 00:28:48;;;;;;;23.73;3.37;;;;;;;-145.14;100.00;70583.66;4995719;28;20478;-72
2022/02/21 00:31:14;;;;;;;12.50;2.53;;;;;;;-145.14;100.00;70583.66;4993068;28;20198;-72
2022/02/21 00:33:40;;;;;;;22.43;3.20;;;;;;;-145.14;100.00;70583.66;4994211;28;20470;-71
2022/02/21 00:36:05;;;;;;;23.53;3.70;;;;;;;-145.14;100.00;70583.66;4994467;28;20596;-72
2022/02/21 00:38:31;;;;;;;27.23;4.23;;;;;;;-145.14;100.00;70583.66;4999334;28;20201;-72
2022/02/21 00:40:57;;;;;;;13.20;2.80;;;;;;;-145.14;100.00;70583.66;5001400;28;20196;-72
2022/02/21 00:43:22;;;;;;;15.30;2.40;;;;;;;-145.14;100.00;70583.66;4996466;28;21644;-73
2022/02/21 00:45:48;;;;;;;10.47;1.57;;;;;;;-145.14;100.00;70583.66;4995828;28;20603;-72
2022/02/21 00:48:13;;;;;;;10.03;2.30;;;;;;;-145.14;100.00;70583.66;4998234;28;20284;-72
2022/02/21 00:50:39;;;;;;;14.83;2.73;;;;;;;-145.14;100.00;70583.66;5010982;28;20205;-71
2022/02/21 00:53:05;;;;;;;11.63;2.53;;;;;;;-145.14;100.00;70583.66;4998265;28;20217;-71
2022/02/21 00:55:33;;;;;;;18.53;3.57;;;;;;;-145.14;100.00;70583.66;4992954;28;20275;-71
2022/02/21 00:57:59;;;;;;;19.30;4.20;;;;;;;-145.14;100.00;70583.66;4993148;28;20447;-71
2022/02/21 01:00:24;;;;;;;20.30;3.60;;;;;;;-145.14;100.00;70583.66;4999185;28;20924;-71
2022/02/21 01:02:50;;;;;;;30.00;5.43;;;;;;;-145.14;100.00;70583.66;4995742;28;20212;-71
2022/02/21 01:05:15;;;;;;;21.20;4.20;;;;;;;-145.14;100.00;70583.66;4995313;28;20213;-72
2022/02/21 01:07:41;;;;;;;32.97;5.87;;;;;;;-145.14;100.00;70583.66;4995396;28;20658;-72
2022/02/21 01:10:07;;;;;;;29.30;4.87;;;;;;;-145.14;100.00;70583.66;4997655;28;20556;-72
2022/02/21 01:12:32;;;;;;;26.37;4.70;;;;;;;-145.14;100.00;70583.66;4992761;28;20415;-72
2022/02/21 01:14:58;;;;;;;27.13;5.13;;;;;;;-145.14;100.00;70583.66;4950192;28;20550;-72
2022/02/21 01:17:26;;;;;;;29.90;4.60;;;;;;;-145.14;100.00;70583.66;4956450;28;20192;-72
2022/02/21 01:19:51;;;;;;;36.00;5.57;;;;;;;-145.14;100.00;70583.66;4976922;28;20497;-71
2022/02/21 01:22:17;;;;;;;17.90;4.03;;;;;;;-145.14;100.00;70583.66;4978582;28;20461;-73
2022/02/21 01:24:43;;;;;;;24.63;4.43;;;;;;;-145.14;100.00;70583.66;4971762;28;20654;-71
2022/02/21 01:27:09;;;;;;;27.13;4.33;;;;;;;-145.14;100.00;70583.66;4985577;28;21068;-71
2022/02/21 01:29:35;;;;;;;12.40;3.73;;;;;;;-145.14;100.00;70583.66;4993129;28;20254;-70
2022/02/21 01:32:00;;;;;;;25.70;4.93;;;;;;;-145.14;100.00;70583.66;4997826;28;20448;-71
2022/02/21 01:34:26;;;;;;;22.10;4.07;;;;;;;-145.14;100.00;70583.66;5007679;23;20282;-81
2022/02/21 01:36:52;;;;;;;22.93;4.00;;;;;;;-145.14;100.00;70583.66;4992559;28;20191;-79
2022/02/21 01:39:18;;;;;;;24.43;4.30;;;;;;;-145.14;100.00;70583.66;5000756;28;20700;-79
2022/02/21 01:41:44;;;;;;;24.93;4.17;;;;;;;-145.14;100.00;70583.66;4995586;28;20440;-79
2022/02/21 01:44:12;;;;;;;22.23;5.03;;;;;;;-145.14;100.00;70583.66;4997796;28;20849;-80
2022/02/21 01:46:40;;;;;;;20.00;4.80;;;;;;;-145.14;100.00;70583.66;4996845;28;20282;-81
2022/02/21 01:49:05;;;;;;;;;;;;;;;-145.14;100.00;70583.66;4993434;28;20602;-81
2022/02/21 01:51:33;;;;;;;25.00;4.70;;;;;;;-145.14;100.00;70583.66;4993762;28;20271;-79
2022/02/21 01:54:00;;;;;;;;;;;;;;;-145.14;100.00;70583.66;4994563;28;20212;-79
2022/02/21 01:56:26;;;;;;;;;;;;;;;-145.14;100.00;70583.66;4994023;28;21025;-80
2022/02/21 01:58:51;;;;;;;22.90;5.50;;;;;;;-145.14;100.00;70583.66;4992647;28;20846;-79
2022/02/21 02:01:17;;;;;;;22.23;4.40;;;;;;;-145.14;100.00;70583.66;4992482;28;20169;-79
2022/02/21 02:03:42;;;;;;;;;;;;;;;-145.14;100.00;70583.66;4992793;28;21363;-79
2022/02/21 02:06:09;;;;;;;27.60;5.05;;;;;;;-145.14;100.00;70583.66;4990680;28;20613;-78
2022/02/21 02:08:35;;;;;;;22.13;4.43;;;;;;;-145.14;100.00;70583.66;5009645;28;20313;-80
2022/02/21 02:11:01;;;;;;;19.17;4.87;;;;;;;-145.14;100.00;70583.66;4996445;28;20440;-83
2022/02/21 02:13:27;;;;;;;24.53;4.27;;;;;;;-145.14;100.00;70583.66;4993986;28;20245;-82
2022/02/21 02:15:54;;;;;;;17.17;4.33;;;;;;;-145.14;100.00;70583.66;4993641;28;20441;-79
2022/02/21 02:18:21;;;;;;;20.73;4.57;;;;;;;-145.14;100.00;70583.66;4993179;28;20439;-80
2022/02/21 02:20:47;;;;;;;23.93;3.53;;;;;;;-145.14;100.00;70583.66;4994956;28;20427;-80
2022/02/21 02:23:13;;;;;;;18.00;4.10;;;;;;;-145.14;100.00;70583.66;4994944;28;20865;-78
2022/02/21 02:25:39;;;;;;;15.73;4.20;;;;;;;-145.14;100.00;70583.66;4995539;28;20469;-80
2022/02/21 02:28:05;;;;;;;25.60;4.35;;;;;;;-145.14;100.00;70583.66;4994996;28;20212;-80
2022/02/21 02:30:31;;;;;;;16.10;4.00;;;;;;;-145.14;100.00;70583.66;4991119;28;20436;-81
2022/02/21 02:32:57;;;;;;;19.90;4.40;;;;;;;-145.14;100.00;70583.66;4994186;28;20535;-79
2022/02/21 02:35:24;;;;;;;20.70;4.10;;;;;;;-145.14;100.00;70583.66;4999228;28;20192;-81
2022/02/21 02:37:49;;;;;;;24.43;5.93;;;;;;;-145.14;100.00;70583.66;4999574;28;20723;-80
2022/02/21 02:40:15;;;;;;;20.90;4.23;;;;;;;-145.14;100.00;70583.66;4993501;28;20495;-80
2022/02/21 02:42:41;;;;;;;32.87;4.60;;;;;;;-145.14;100.00;70583.66;4997187;28;20208;-80
2022/02/21 02:45:07;;;;;;;21.70;4.80;;;;;;;-145.14;100.00;70583.66;4994829;28;20270;-79
2022/02/21 02:47:33;;;;;;;20.37;5.47;;;;;;;-145.14;100.00;70583.66;4996909;28;20452;-81
2022/02/21 02:49:58;;;;;;;25.57;5.60;;;;;;;-145.14;100.00;70583.66;4999449;28;20455;-81
2022/02/21 02:52:24;;;;;;;20.33;4.90;;;;;;;-145.14;100.00;70583.66;4993394;28;20185;-79
2022/02/21 02:54:49;;;;;;;23.37;5.60;;;;;;;-145.14;100.00;70583.66;4998253;28;20674;-79
2022/02/21 02:57:14;;;;;;;32.30;5.10;;;;;;;-145.14;100.00;70583.66;4994499;28;20189;-79
2022/02/21 02:59:40;;;;;;;21.73;5.30;;;;;;;-145.14;100.00;70583.66;4990171;28;20181;-80
2022/02/21 03:02:05;;;;;;;18.13;4.00;;;;;;;-145.14;100.00;70583.66;4993945;28;20197;-80
2022/02/21 03:04:31;;;;;;;18.60;3.53;;;;;;;-145.14;100.00;70583.66;4996624;28;20217;-82
2022/02/21 03:07:00;;;;;;;23.43;4.63;;;;;;;-145.14;100.00;70583.66;4987568;28;20289;-79
2022/02/21 03:09:27;;;;;;;16.30;3.83;;;;;;;-145.14;100.00;70583.66;4990554;28;20203;-81
2022/02/21 03:11:53;;;;;;;17.53;4.93;;;;;;;-145.14;100.00;70583.66;4993372;28;20531;-81
2022/02/21 03:14:20;;;;;;;20.60;5.13;;;;;;;-145.14;100.00;70583.66;4993612;28;20533;-80
2022/02/21 03:16:46;;;;;;;32.27;6.13;;;;;;;-145.14;100.00;70583.66;4993087;28;20436;-79
2022/02/21 03:19:12;;;;;;;16.07;3.53;;;;;;;-145.14;100.00;70583.66;4991528;28;20448;-81
2022/02/21 03:21:37;;;;;;;15.90;3.93;;;;;;;-145.14;100.00;70583.66;4989682;28;20562;-80
2022/02/21 03:24:03;;;;;;;17.40;4.00;;;;;;;-145.14;100.00;70583.66;4990412;28;20680;-80
2022/02/21 03:26:28;;;;;;;17.23;4.07;;;;;;;-145.14;100.00;70583.66;4991506;28;20279;-80
2022/02/21 03:28:54;;;;;;;18.93;3.87;;;;;;;-145.14;100.00;70583.66;4993255;28;20447;-80
2022/02/21 03:31:19;;;;;;;17.43;4.03;;;;;;;-145.14;100.00;70583.66;4991421;28;20695;-80
2022/02/21 03:33:45;;;;;;;18.30;3.80;;;;;;;-145.14;100.00;70583.66;4994757;28;20256;-81
2022/02/21 03:36:10;;;;;;;22.87;4.70;;;;;;;-145.14;100.00;70583.66;4989546;28;20207;-80
2022/02/21 03:38:36;;;;;;;20.93;4.60;;;;;;;-145.14;100.00;70583.66;4994644;28;20189;-80
2022/02/21 03:41:01;;;;;;;18.77;4.37;;;;;;;-145.14;100.00;70583.66;4991231;28;20271;-81
2022/02/21 03:43:27;;;;;;;23.87;5.30;;;;;;;-145.14;100.00;70583.66;4990650;28;20264;-82
2022/02/21 03:45:53;;;;;;;26.00;4.90;;;;;;;-145.14;100.00;70583.66;4994606;28;20509;-82
2022/02/21 03:48:18;;;;;;;20.70;4.23;;;;;;;-145.14;100.00;70583.66;5000788;28;20190;-83
2022/02/21 03:50:44;;;;;;;16.73;4.60;;;;;;;-145.14;100.00;70583.66;4995839;28;20279;-82
2022/02/21 03:53:10;;;;;;;22.03;5.77;;;;;;;-145.14;100.00;70583.66;4995873;28;20222;-81
2022/02/21 03:55:36;;;;;;;21.77;4.17;;;;;;;-145.14;100.00;70583.66;4993632;28;20515;-79
2022/02/21 03:58:01;;;;;;;20.27;4.37;;;;;;;-145.14;100.00;70583.66;4997743;28;20201;-81
2022/02/21 04:00:27;;;;;;;20.67;3.50;;;;;;;-145.14;100.00;70583.66;4999612;28;20198;-85
2022/02/21 04:02:53;;;;;;;19.10;3.70;;;;;;;-145.14;100.00;70583.66;4995389;28;20245;-86
2022/02/21 04:05:19;;;;;;;17.80;4.10;;;;;;;-145.14;100.00;70583.66;4992979;28;20212;-86
2022/02/21 04:07:44;;;;;;;13.57;3.40;;;;;;;-145.14;100.00;70583.66;4998297;28;20451;-86
2022/02/21 04:10:14;;;;;;;21.47;4.20;;;;;;;-145.14;100.00;70583.66;4997298;28;20678;-86
2022/02/21 04:12:40;;;;;;;16.27;4.57;;;;;;;-145.14;100.00;70583.66;5009919;28;20189;-85
2022/02/21 04:15:07;;;;;;;20.63;4.73;;;;;;;-145.14;100.00;70583.66;4996166;28;20538;-86
2022/02/21 04:17:41;;;;;;;22.90;4.70;;;;;;;-145.14;100.00;70583.66;5010615;28;20448;-83
2022/02/21 04:20:09;;;;;;;18.07;4.50;;;;;;;-145.14;100.00;70583.66;4995825;28;20976;-86
2022/02/21 04:22:34;;;;;;;21.90;3.87;;;;;;;-145.14;100.00;70583.66;4993868;28;20502;-84
2022/02/21 04:25:00;;;;;;;23.60;4.37;;;;;;;-145.14;100.00;70583.66;4993403;28;20440;-82
2022/02/21 04:27:25;;;;;;;22.07;4.30;;;;;;;-145.14;100.00;70583.66;4994395;28;20227;-84
2022/02/21 04:29:51;;;;;;;17.00;5.00;;;;;;;-145.14;100.00;70583.66;4994955;28;20547;-82
2022/02/21 04:32:16;;;;;;;22.23;4.33;;;;;;;-145.14;100.00;70583.66;4995286;28;20212;-82
2022/02/21 04:34:41;;;;;;;22.90;5.17;;;;;;;-145.14;100.00;70583.66;4992249;28;20693;-82
2022/02/21 04:37:07;;;;;;;26.77;5.60;;;;;;;-145.14;100.00;70583.66;4994561;28;20911;-82
2022/02/21 04:39:32;;;;;;;19.73;4.00;;;;;;;-145.14;100.00;70583.66;4997058;28;20204;-82
2022/02/21 04:41:58;;;;;;;18.57;4.97;;;;;;;-145.14;100.00;70583.66;4991177;28;20263;-82
2022/02/21 04:44:23;;;;;;;23.77;3.93;;;;;;;-145.14;100.00;70583.66;4995534;28;20208;-83
2022/02/21 04:46:49;;;;;;;23.67;5.00;;;;;;;-145.14;100.00;70583.66;4993578;28;20205;-83
2022/02/21 04:49:15;;;;;;;26.57;5.10;;;;;;;-145.14;100.00;70583.66;5002652;28;20237;-81
2022/02/21 04:51:40;;;;;;;22.47;4.77;;;;;;;-145.14;100.00;70583.66;4999226;28;20197;-79
2022/02/21 04:54:06;;;;;;;25.17;4.83;;;;;;;-145.14;100.00;70583.66;4995410;28;20463;-82
2022/02/21 04:56:31;;;;;;;15.70;3.70;;;;;;;-145.14;100.00;70583.66;4994205;28;20197;-82
2022/02/21 04:58:57;;;;;;;16.60;3.73;;;;;;;-145.14;100.00;70583.66;4995008;28;20580;-81
2022/02/21 05:01:22;;;;;;;16.10;3.60;;;;;;;-145.14;100.00;70583.66;4997449;28;20235;-82
2022/02/21 05:03:48;;;;;;;22.70;4.50;;;;;;;-145.14;100.00;70583.66;4992921;28;20220;-80
2022/02/21 05:06:14;;;;;;;25.90;6.47;;;;;;;-145.14;100.00;70583.66;4997233;28;20274;-81
2022/02/21 05:08:39;;;;;;;23.80;3.97;;;;;;;-145.14;100.00;70583.66;4991377;28;20189;-80
2022/02/21 05:11:06;;;;;;;19.63;4.13;;;;;;;-145.14;100.00;70583.66;4994851;28;20793;-82
2022/02/21 05:13:31;;;;;;;19.33;4.87;;;;;;;-145.14;100.00;70583.66;4993018;28;20268;-85
2022/02/21 05:15:57;;;;;;;24.13;4.80;;;;;;;-145.14;100.00;70583.66;4993048;28;20432;-83
2022/02/21 05:18:22;;;;;;;26.67;5.03;;;;;;;-145.14;100.00;70583.66;4993217;28;20193;-82
2022/02/21 05:20:48;;;;;;;24.17;4.83;;;;;;;-145.14;100.00;70583.66;4993150;28;20310;-84
2022/02/21 05:23:13;;;;;;;17.27;3.70;;;;;;;-145.14;100.00;70583.66;4995790;28;20213;-81
2022/02/21 05:25:39;;;;;;;28.53;4.90;;;;;;;-145.14;100.00;70583.66;4992719;28;20689;-84
2022/02/21 05:28:06;;;;;;;17.90;4.50;;;;;;;-145.14;100.00;70583.66;5006723;28;20661;-83
2022/02/21 05:30:31;;;;;;;18.97;3.93;;;;;;;-145.14;100.00;70583.66;4992514;28;20252;-85
2022/02/21 05:32:57;;;;;;;21.33;3.87;;;;;;;-145.14;100.00;70583.66;4997537;28;20467;-85
2022/02/21 05:35:22;;;;;;;21.33;4.20;;;;;;;-145.14;100.00;70583.66;4990764;28;20561;-82
2022/02/21 05:37:48;;;;;;;20.60;4.03;;;;;;;-145.14;100.00;70583.66;4990513;28;20810;-84
2022/02/21 05:40:14;;;;;;;16.47;4.10;;;;;;;-145.14;100.00;70583.66;4993330;28;20327;-83
2022/02/21 05:42:39;;;;;;;19.77;4.60;;;;;;;-145.14;100.00;70583.66;4993422;28;20768;-82
2022/02/21 05:45:05;;;;;;;27.40;3.97;;;;;;;-145.14;100.00;70583.66;4994464;28;20698;-83
2022/02/21 05:47:31;;;;;;;29.93;5.50;;;;;;;-145.14;100.00;70583.66;4996245;28;20231;-85
2022/02/21 05:49:56;;;;;;;20.53;4.30;;;;;;;-145.14;100.00;70583.66;4992567;28;20221;-84
2022/02/21 05:52:21;;;;;;;22.07;5.60;;;;;;;-145.14;100.00;70583.66;4998461;28;20192;-81
2022/02/21 05:54:47;;;;;;;18.50;4.47;;;;;;;-145.14;100.00;70583.66;4991872;28;20271;-80
2022/02/21 05:57:12;;;;;;;20.90;3.97;;;;;;;-145.14;100.00;70583.66;4994293;28;20181;-82
2022/02/21 05:59:38;;;;;;;13.93;3.43;;;;;;;-145.14;100.00;70583.66;4994134;28;20251;-83
2022/02/21 06:02:03;;;;;;;20.67;4.20;;;;;;;-145.14;100.00;70583.66;4999114;28;20181;-83
2022/02/21 06:04:29;;;;;;;25.93;5.00;;;;;;;-145.14;100.00;70583.66;4998915;28;20215;-83
2022/02/21 06:06:54;;;;;;;22.33;3.90;;;;;;;-145.14;100.00;70583.66;4998922;28;20202;-84
2022/02/21 06:09:20;;;;;;;17.73;4.70;;;;;;;-145.14;100.00;70583.66;4999110;28;20565;-84
2022/02/21 06:11:47;;;;;;;22.13;4.17;;;;;;;-145.14;100.00;70583.66;5010806;28;20268;-81
2022/02/21 06:14:12;;;;;;;21.60;4.33;;;;;;;-145.14;100.00;70583.66;5006186;28;20271;-80
2022/02/21 06:16:40;;;;;;;18.50;4.23;;;;;;;-145.14;100.00;70583.66;4984222;28;20815;-82
2022/02/21 06:19:06;;;;;;;18.33;4.43;;;;;;;-145.14;100.00;70583.66;4980582;28;20345;-81
2022/02/21 06:21:32;;;;;;;13.83;3.67;;;;;;;-145.14;100.00;70583.66;4975506;28;20447;-81
2022/02/21 06:23:57;;;;;;;19.13;4.43;;;;;;;-145.14;100.00;70583.66;4983501;28;20217;-82
2022/02/21 06:26:22;;;;;;;21.70;4.23;;;;;;;-145.14;100.00;70583.66;5006960;28;20690;-84
2022/02/21 06:28:48;;;;;;;20.73;4.90;;;;;;;-145.14;100.00;70583.66;4982678;28;20194;-80
2022/02/21 06:31:13;;;;;;;23.60;4.10;;;;;;;-145.14;100.00;70583.66;4993420;28;20189;-82
2022/02/21 06:33:39;;;;;;;22.80;4.33;;;;;;;-145.14;100.00;70583.66;4994106;28;20217;-81
2022/02/21 06:36:05;;;;;;;26.47;4.73;;;;;;;-145.14;100.00;70583.66;4991540;28;20208;-82
2022/02/21 06:38:30;;;;;;;21.90;5.07;;;;;;;-145.14;100.00;70583.66;4992557;28;20669;-82
2022/02/21 06:40:57;;;;;;;19.27;4.37;;;;;;;-145.14;100.00;70583.66;4983947;28;20455;-80
2022/02/21 06:43:23;;;;;;;24.87;4.90;;;;;;;-145.14;100.00;70583.66;4987431;28;20251;-77
2022/02/21 06:45:48;;;;;;;15.67;3.80;;;;;;;-145.14;100.00;70583.66;4990434;28;21041;-80
2022/02/21 06:48:14;;;;;;;16.97;4.40;;;;;;;-145.14;100.00;70583.66;4988803;28;20189;-83
2022/02/21 06:50:40;;;;;;;17.37;4.47;;;;;;;-145.14;100.00;70583.66;4989810;28;20198;-82
2022/02/21 06:53:05;;;;;;;19.53;3.80;;;;;;;-145.14;100.00;70583.66;4991170;28;20217;-81
2022/02/21 06:55:30;;;;;;;20.80;4.07;;;;;;;-145.14;100.00;70583.66;5007648;28;20278;-81
2022/02/21 06:57:56;;;;;;;24.63;4.70;;;;;;;-145.14;100.00;70583.66;4992945;28;20196;-81
2022/02/21 07:00:22;;;;;;;18.43;4.87;;;;;;;-145.14;100.00;70583.66;4995172;28;20236;-82
2022/02/21 07:02:47;;;;;;;22.37;4.70;;;;;;;-145.14;100.00;70583.66;4996903;28;20619;-82
2022/02/21 07:05:13;;;;;;;23.87;4.30;;;;;;;-145.14;100.00;70583.66;4994895;28;20471;-80
2022/02/21 07:07:39;;;;;;;23.03;4.00;;;;;;;-145.14;100.00;70583.66;4990300;28;20283;-81
2022/02/21 07:10:05;;;;;;;20.30;4.13;;;;;;;-145.14;100.00;70583.66;4982232;28;20808;-80
2022/02/21 07:12:31;;;;;;;21.40;4.43;;;;;;;-145.14;100.00;70583.66;4985334;28;20194;-80
2022/02/21 07:14:56;;;;;;;31.70;4.67;;;;;;;-145.14;100.00;70583.66;4987951;28;20471;-81
2022/02/21 07:17:22;;;;;;;21.53;5.00;;;;;;;-145.14;100.00;70583.66;4988655;28;20219;-81
2022/02/21 07:19:49;;;;;;;15.13;4.00;;;;;;;-145.14;100.00;70583.66;4983672;28;20197;-80
2022/02/21 07:22:15;;;;;;;24.10;4.60;;;;;;;-145.14;100.00;70583.66;4986251;28;20216;-82
2022/02/21 07:24:41;;;;;;;18.97;4.90;;;;;;;-145.14;100.00;70583.66;4987940;28;20509;-80
2022/02/21 07:27:06;;;;;;;20.30;3.80;;;;;;;-145.14;100.00;70583.66;4982819;28;20593;-81
2022/02/21 07:29:33;;;;;;;10.83;3.97;;;;;;;-145.14;100.00;70583.66;4988651;28;20214;-81
2022/02/21 07:31:59;;;;;;;20.73;4.13;;;;;;;-145.14;100.00;70583.66;4983981;28;20235;-81
2022/02/21 07:34:24;;;;;;;26.00;4.97;;;;;;;-145.14;100.00;70583.66;4988370;28;20469;-81
2022/02/21 07:36:50;;;;;;;21.30;3.93;;;;;;;-145.14;100.00;70583.66;4983949;28;20189;-81
2022/02/21 07:39:17;;;;;;;19.23;4.03;;;;;;;-145.14;100.00;70583.66;4983959;28;20224;-81
2022/02/21 07:41:43;;;;;;;26.93;4.03;;;;;;;-145.14;100.00;70583.66;4985430;28;20185;-81
2022/02/21 07:44:08;;;;;;;18.40;4.30;;;;;;;-145.14;100.00;70583.66;4994444;28;20467;-81
2022/02/21 07:46:34;;;;;;;26.60;5.07;;;;;;;-145.14;100.00;70583.66;4992043;28;20209;-79
2022/02/21 07:48:59;;;;;;;26.17;5.03;;;;;;;-145.14;100.00;70583.66;4987281;28;20201;-80
2022/02/21 07:51:25;;;;;;;22.63;4.47;;;;;;;-145.14;100.00;70583.66;4989763;28;20251;-80
2022/02/21 07:53:50;;;;;;;25.53;4.40;;;;;;;-145.14;100.00;70583.66;4992897;28;20215;-81
2022/02/21 07:56:16;;;;;;;22.73;4.73;;;;;;;-145.14;100.00;70583.66;4988400;28;20185;-80
2022/02/21 07:58:42;;;;;;;29.50;5.73;;;;;;;-145.14;100.00;70583.66;4985910;28;20454;-80
2022/02/21 08:01:07;;;;;;;27.73;4.97;;;;;;;-145.14;100.00;70583.66;4988265;28;20613;-80
2022/02/21 08:03:36;;;;;;;22.30;4.40;;;;;;;-145.14;100.00;70583.66;4985874;28;20592;-82
2022/02/21 08:06:06;;;;;;;24.23;4.50;;;;;;;-145.14;100.00;70583.66;4987377;28;20209;-78
2022/02/21 08:08:31;;;;;;;16.70;4.13;;;;;;;-145.14;100.00;70583.66;4986072;28;21349;-77
2022/02/21 08:10:57;;;;;;;23.13;4.73;;;;;;;-145.14;100.00;70583.66;4985776;28;20955;-78
2022/02/21 08:13:22;;;;;;;31.60;4.80;;;;;;;-145.14;100.00;70583.66;4989341;28;20215;-77
2022/02/21 08:15:48;;;;;;;25.13;5.50;;;;;;;-145.14;100.00;70583.66;4985373;28;20443;-79
2022/02/21 08:18:13;;;;;;;23.73;6.07;;;;;;;-145.14;100.00;70583.66;4986915;28;20268;-77
2022/02/21 08:20:39;;;;;;;34.53;5.77;;;;;;;-145.14;100.00;70583.66;4976627;28;20189;-80
2022/02/21 08:23:04;;;;;;;20.73;5.07;;;;;;;-145.14;100.00;70583.66;4984153;28;20275;-78
2022/02/21 08:25:30;;;;;;;26.93;4.93;;;;;;;-145.14;100.00;70583.66;4990012;28;20194;-79
2022/02/21 08:27:55;;;;;;;21.13;4.03;;;;;;;-145.14;100.00;70583.66;4988829;28;20323;-78
2022/02/21 08:30:22;;;;;;;20.43;4.47;;;;;;;-145.14;100.00;70583.66;4986934;28;20201;-78
2022/02/21 08:32:48;;;;;;;24.00;4.73;;;;;;;-145.14;100.00;70583.66;4994638;28;20271;-80
2022/02/21 08:35:14;;;;;;;19.90;4.90;;;;;;;-145.14;100.00;70583.66;4995374;28;20443;-78
2022/02/21 08:37:41;;;;;;;24.87;4.73;;;;;;;-145.14;100.00;70583.66;4988384;28;20223;-79
2022/02/21 08:40:09;;;;;;;21.67;4.60;;;;;;;-145.14;100.00;70583.66;4996522;28;20451;-78
2022/02/21 08:42:36;;;;;;;22.13;4.30;;;;;;;-145.14;100.00;70583.66;4992590;28;20443;-77
2022/02/21 08:45:03;;;;;;;25.63;5.27;;;;;;;-145.14;100.00;70583.66;4994458;28;20435;-79
2022/02/21 08:47:29;;;;;;;19.10;4.07;;;;;;;-145.14;100.00;70583.66;4990490;28;20558;-81
2022/02/21 08:49:54;;;;;;;19.30;4.30;;;;;;;-145.14;100.00;70583.66;4996114;28;20437;-80
2022/02/21 08:52:19;;;;;;;27.50;5.03;;;;;;;-145.14;100.00;70583.66;4995590;28;20839;-80
2022/02/21 08:54:45;;;;;;;22.07;4.10;;;;;;;-145.14;100.00;70583.66;4997095;28;20213;-80
2022/02/21 08:57:10;;;;;;;20.87;4.60;;;;;;;-145.14;100.00;70583.66;4986705;28;20239;-81
2022/02/21 08:59:36;;;;;;;16.27;3.87;;;;;;;-145.14;100.00;70583.66;4991812;28;20201;-80
2022/02/21 09:02:02;;;;;;;14.90;4.23;;;;;;;-145.14;100.00;70583.66;4992923;28;20760;-81
2022/02/21 09:04:28;;;;;;;14.90;3.33;;;;;;;-145.14;100.00;70583.66;4989370;28;20236;-81
2022/02/21 09:06:54;;;;;;;17.83;3.90;;;;;;;-145.14;100.00;70583.66;4991631;28;20543;-81
2022/02/21 09:09:21;;;;;;;14.47;3.37;;;;;;;-145.14;100.00;70583.66;4992956;28;20562;-82
2022/02/21 09:11:47;;;;;;;23.90;3.77;;;;;;;-145.14;100.00;70583.66;4995131;28;20673;-81
2022/02/21 09:14:12;;;;;;;17.87;3.90;;;;;;;-145.14;100.00;70583.66;4989432;28;20471;-82
2022/02/21 09:16:38;;;;;;;15.50;4.27;;;;;;;-145.14;100.00;70583.66;4991525;28;20193;-81
2022/02/21 09:19:03;;;;;;;17.13;3.80;;;;;;;-145.14;100.00;70583.66;4990771;28;20676;-81
2022/02/21 09:21:29;;;;;;;10.40;2.73;;;;;;;-145.14;100.00;70583.66;4988873;28;20190;-82
2022/02/21 09:23:54;;;;;;;7.07;1.97;;;;;;;-145.14;100.00;70583.66;4990214;28;20208;-82
2022/02/21 09:26:20;;;;;;;8.00;2.20;;;;;;;-145.14;100.00;70583.66;4995257;28;20219;-83
2022/02/21 09:28:45;;;;;;;10.27;2.40;;;;;;;-145.14;100.00;70583.66;4993362;28;20216;-82
2022/02/21 09:31:11;;;;;;;6.53;1.90;;;;;;;-145.14;100.00;70583.66;4988389;28;21453;-82
2022/02/21 09:33:36;;;;;;;12.17;2.50;;;;;;;-145.14;100.00;70583.66;4999377;22;20670;-72
2022/02/21 09:36:02;;;;;;;5.30;1.80;;;;;;;-145.14;100.00;70583.66;4976599;28;20207;-74
2022/02/21 09:38:28;;;;;;;6.57;1.70;;;;;;;-145.14;100.00;70583.66;4998694;28;20662;-74
2022/02/21 09:40:56;;;;;;;9.43;2.23;;;;;;;-145.14;100.00;70583.66;4996100;28;20221;-74
2022/02/21 09:43:26;;;;;;;7.33;1.93;;;;;;;-145.14;100.00;70583.66;4977552;28;20220;-74
2022/02/21 09:46:04;;;;;;;8.97;1.80;;;;;;;-145.14;100.00;70583.66;4968936;28;20538;-74
2022/02/21 09:48:30;;;;;;;7.80;1.53;;;;;;;-145.14;100.00;70583.66;4971241;28;20438;-75
2022/02/21 09:51:00;;;;;;;5.70;2.00;;;;;;;-145.14;100.00;70583.66;4974650;28;20803;-74
2022/02/21 09:53:30;;;;;;;3.33;1.43;;;;;;;-145.14;100.00;70583.66;4974884;28;20446;-75
2022/02/21 09:55:56;;;;;;;6.67;1.20;;;;;;;-145.14;100.00;70583.66;4972356;28;20978;-75
2022/02/21 09:58:24;;;;;;;2.30;0.90;;;;;;;-145.14;100.00;70583.66;4953408;28;20461;-75
2022/02/21 10:00:50;;;;;;;3.55;1.15;;;;;;;-145.14;100.00;70583.66;4968016;28;25100;-75
2022/02/21 10:03:38;;;;;;;5.00;1.00;;;;;;;-145.14;100.00;70583.66;4959212;28;20488;-75
2022/02/21 10:06:30;;;;;;;1.87;0.77;;;;;;;-145.14;100.00;70583.66;4967368;28;20519;-74
2022/02/21 10:09:08;;;;;;;3.13;1.07;;;;;;;-145.14;100.00;70583.66;4962043;28;20437;-75
2022/02/21 10:11:38;;;;;;;3.13;0.77;;;;;;;-145.14;100.00;70583.66;4947558;28;20488;-75
2022/02/21 10:14:27;;;;;;;1.90;0.70;;;;;;;-145.14;100.00;70583.66;4965786;28;20457;-75
2022/02/21 10:16:55;;;;;;;2.07;0.80;;;;;;;-145.14;100.00;70583.66;4973320;28;20530;-75
2022/02/21 10:19:25;;;;;;;3.07;1.00;;;;;;;-145.14;100.00;70583.66;4971046;28;20456;-75
2022/02/21 10:21:59;;;;;;;6.13;1.67;;;;;;;-145.14;100.00;70583.66;4971836;28;20478;-75
2022/02/21 10:24:37;;;;;;;2.53;1.27;;;;;;;-145.14;100.00;70583.66;4968842;28;20487;-75
2022/02/21 10:27:14;;;;;;;3.30;1.50;;;;;;;-145.14;100.00;70583.66;4969677;28;20473;-75
2022/02/21 10:29:53;;;;;;;3.37;2.27;;;;;;;-145.14;100.00;70583.66;4970894;28;20452;-75
2022/02/21 10:32:24;;;;;;;2.03;0.97;;;;;;;-145.14;100.00;70583.66;4968896;28;22164;-75
2022/02/21 10:34:50;;;;;;;2.87;1.00;;;;;;;-145.14;100.00;70583.66;4968730;28;20444;-75
2022/02/21 10:37:20;;;;;;;1.83;0.80;;;;;;;-145.14;100.00;70583.66;4958593;28;20861;-72
2022/02/21 10:39:46;;;;;;;2.20;0.80;;;;;;;-145.14;100.00;70583.66;4969363;28;20456;-75
2022/02/21 10:42:11;;;;;;;2.77;0.60;;;;;;;-145.14;100.00;70583.66;4971900;28;20444;-75
2022/02/21 10:44:39;;;;;;;2.80;0.73;;;;;;;-145.14;100.00;70583.66;4972892;28;20213;-75
2022/02/21 10:47:07;;;;;;;2.50;0.70;;;;;;;-145.14;100.00;70583.66;4971621;28;20261;-75
2022/02/21 10:49:35;;;;;;;1.70;0.80;;;;;;;-145.14;100.00;70583.66;4971015;28;20527;-74
2022/02/21 10:52:02;;;;;;;1.53;0.97;;;;;;;-145.14;100.00;70583.66;4969773;28;20523;-74
2022/02/21 10:54:32;;;;;;;2.83;0.70;;;;;;;-145.14;100.00;70583.66;4971929;28;20476;-74
2022/02/21 10:56:58;;;;;;;4.57;0.80;;;;;;;-145.14;100.00;70583.66;4968531;28;21048;-74
2022/02/21 10:59:29;;;;;;;1.90;0.70;;;;;;;-145.14;100.00;70583.66;4957125;28;20456;-74
2022/02/21 11:01:55;;;;;;;1.60;0.70;;;;;;;-145.14;100.00;70583.66;4971813;28;20329;-74